createdAt,value
2019-03-15T00:01:35.244Z,15.27
2019-03-15T00:04:03.684Z,16.73
2019-03-15T00:06:32.277Z,12.17
2019-03-15T00:09:00.705Z,11.30
2019-03-15T00:11:29.436Z,7.50
2019-03-15T00:13:58.242Z,11.33
2019-03-15T00:16:26.676Z,14.90
2019-03-15T00:18:55.096Z,6.83
2019-03-15T00:21:23.535Z,13.40
2019-03-15T00:23:51.953Z,10.93
2019-03-15T00:26:20.395Z,11.13
2019-03-15T00:28:48.826Z,12.37
2019-03-15T00:31:17.258Z,15.40
2019-03-15T00:33:47.893Z,13.53
2019-03-15T00:36:16.325Z,13.63
2019-03-15T00:38:44.765Z,6.93
2019-03-15T00:41:13.197Z,12.57
2019-03-15T00:43:41.641Z,5.33
2019-03-15T00:46:10.145Z,17.70
2019-03-15T00:48:38.561Z,8.13
2019-03-15T00:51:07.000Z,17.17
2019-03-15T00:53:36.370Z,13.43
2019-03-15T00:56:04.812Z,9.47
2019-03-15T00:58:33.229Z,7.50
2019-03-15T01:01:01.682Z,8.67
2019-03-15T01:03:30.170Z,16.63
2019-03-15T01:05:58.812Z,11.73
2019-03-15T01:08:27.563Z,7.63
2019-03-15T01:10:55.988Z,7.23
2019-03-15T01:13:24.452Z,14.53
2019-03-15T01:15:52.894Z,11.93
2019-03-15T01:18:21.305Z,6.03
2019-03-15T01:20:49.746Z,15.13
2019-03-15T01:23:18.173Z,9.73
2019-03-15T01:25:46.613Z,13.93
2019-03-15T01:28:15.045Z,24.47
2019-03-15T01:30:43.473Z,25.23
2019-03-15T01:33:11.914Z,8.00
2019-03-15T01:35:40.365Z,10.20
2019-03-15T01:38:08.833Z,10.70
2019-03-15T01:40:37.389Z,24.40
2019-03-15T01:43:05.911Z,19.07
2019-03-15T01:45:34.633Z,18.17
2019-03-15T01:48:03.155Z,14.47
2019-03-15T01:50:31.680Z,18.90
2019-03-15T01:53:00.111Z,15.20
2019-03-15T01:55:28.566Z,8.23
2019-03-15T01:57:57.094Z,11.50
2019-03-15T02:00:28.310Z,22.07
2019-03-15T02:02:56.736Z,9.27
2019-03-15T02:05:25.171Z,20.20
2019-03-15T02:07:53.605Z,5.53
2019-03-15T02:10:22.591Z,11.57
2019-03-15T02:12:51.145Z,7.13
2019-03-15T02:15:19.569Z,8.90
2019-03-15T02:17:48.029Z,13.60
2019-03-15T02:20:16.453Z,17.40
2019-03-15T02:22:45.083Z,17.37
2019-03-15T02:25:13.572Z,16.00
2019-03-15T02:27:43.240Z,10.13
2019-03-15T02:30:12.048Z,14.33
2019-03-15T02:32:40.483Z,15.57
2019-03-15T02:35:08.903Z,6.00
2019-03-15T02:37:37.327Z,11.83
2019-03-15T02:40:06.841Z,8.03
2019-03-15T02:42:35.286Z,15.53
2019-03-15T02:45:03.848Z,7.43
2019-03-15T02:47:32.284Z,14.53
2019-03-15T02:50:01.461Z,15.70
2019-03-15T02:52:30.724Z,14.60
2019-03-15T02:54:59.194Z,11.73
2019-03-15T02:57:27.632Z,11.80
2019-03-15T02:59:56.046Z,11.63
2019-03-15T03:02:24.484Z,27.40
2019-03-15T03:04:52.915Z,16.23
2019-03-15T03:07:21.361Z,10.43
2019-03-15T03:09:49.808Z,29.63
2019-03-15T03:12:18.327Z,14.27
2019-03-15T03:14:46.884Z,8.43
2019-03-15T03:17:15.310Z,10.50
2019-03-15T03:19:43.732Z,19.40
2019-03-15T03:22:12.160Z,22.87
2019-03-15T03:24:40.798Z,23.23
2019-03-15T03:27:09.221Z,6.53
2019-03-15T03:29:37.739Z,13.17
2019-03-15T03:32:06.311Z,9.07
2019-03-15T03:34:34.971Z,15.80
2019-03-15T03:37:03.615Z,15.03
2019-03-15T03:39:32.055Z,6.67
2019-03-15T03:42:00.749Z,8.47
2019-03-15T03:44:29.180Z,7.27
2019-03-15T03:46:57.612Z,3.67
2019-03-15T03:49:26.063Z,10.83
2019-03-15T03:51:54.515Z,12.40
2019-03-15T03:54:23.512Z,7.90
2019-03-15T03:56:52.079Z,8.10
2019-03-15T03:59:20.500Z,7.50
2019-03-15T04:01:49.279Z,6.47
2019-03-15T04:04:18.097Z,7.53
2019-03-15T04:06:46.525Z,11.13
2019-03-15T04:09:15.158Z,11.73
2019-03-15T04:11:54.807Z,16.20
2019-03-15T04:14:13.720Z,11.80
2019-03-15T04:16:42.145Z,16.63
2019-03-15T04:19:10.617Z,18.70
2019-03-15T04:21:39.057Z,15.67
2019-03-15T04:24:07.579Z,13.90
2019-03-15T04:26:36.126Z,18.90
2019-03-15T04:29:04.549Z,34.83
2019-03-15T04:31:34.924Z,14.43
2019-03-15T04:34:03.141Z,13.33
2019-03-15T04:36:31.578Z,7.03
2019-03-15T04:39:00.017Z,8.23
2019-03-15T04:41:28.450Z,8.67
2019-03-15T04:43:56.881Z,11.03
2019-03-15T04:46:25.309Z,15.73
2019-03-15T04:48:53.760Z,24.13
2019-03-15T04:51:22.187Z,24.33
2019-03-15T04:53:50.773Z,20.70
2019-03-15T04:56:19.202Z,32.93
2019-03-15T04:58:47.646Z,30.37
2019-03-15T05:01:16.067Z,49.17
2019-03-15T05:03:44.485Z,32.47
2019-03-15T05:06:12.929Z,27.40
2019-03-15T05:08:41.433Z,37.00
2019-03-15T05:11:09.872Z,24.57
2019-03-15T05:13:38.317Z,29.57
2019-03-15T05:16:06.803Z,40.53
2019-03-15T05:18:35.229Z,30.23
2019-03-15T05:21:03.853Z,32.07
2019-03-15T05:23:32.282Z,27.43
2019-03-15T05:26:00.744Z,47.83
2019-03-15T05:28:29.182Z,26.23
2019-03-15T05:30:57.614Z,27.57
2019-03-15T05:33:26.045Z,27.53
2019-03-15T05:35:54.487Z,38.83
2019-03-15T05:38:22.952Z,47.40
2019-03-15T05:40:52.377Z,42.13
2019-03-15T05:43:20.801Z,33.20
2019-03-15T05:45:49.228Z,43.93
2019-03-15T05:48:17.658Z,27.50
2019-03-15T05:50:46.114Z,37.73
2019-03-15T05:53:14.541Z,34.17
2019-03-15T05:55:42.984Z,27.07
2019-03-15T05:58:11.413Z,33.93
2019-03-15T06:00:39.847Z,53.53
2019-03-15T06:03:08.340Z,28.27
2019-03-15T06:05:36.775Z,40.83
2019-03-15T06:08:05.243Z,37.70
2019-03-15T06:10:33.713Z,37.03
2019-03-15T06:13:02.209Z,27.07
2019-03-15T06:15:30.874Z,32.20
2019-03-15T06:17:59.282Z,35.30
2019-03-15T06:20:27.709Z,39.90
2019-03-15T06:22:56.149Z,56.13
2019-03-15T06:25:24.586Z,19.80
2019-03-15T06:27:53.120Z,24.53
2019-03-15T06:30:21.588Z,25.67
2019-03-15T06:32:50.105Z,29.70
2019-03-15T06:35:18.548Z,30.10
2019-03-15T06:37:47.226Z,40.17
2019-03-15T06:40:15.655Z,27.17
2019-03-15T06:42:44.085Z,29.20
2019-03-15T06:45:15.133Z,46.90
2019-03-15T06:47:43.561Z,30.43
2019-03-15T06:50:13.712Z,35.20
2019-03-15T06:52:42.809Z,31.60
2019-03-15T06:55:13.868Z,42.37
2019-03-15T06:57:42.536Z,44.80
2019-03-15T07:00:15.854Z,30.63
2019-03-15T07:02:46.043Z,42.23
2019-03-15T07:05:15.384Z,36.37
2019-03-15T07:07:43.796Z,34.10
2019-03-15T07:10:12.802Z,33.13
2019-03-15T07:12:41.229Z,29.37
2019-03-15T07:15:14.178Z,25.77
2019-03-15T07:17:42.628Z,54.83
2019-03-15T07:20:16.116Z,25.17
2019-03-15T07:22:44.792Z,38.40
2019-03-15T07:25:13.867Z,32.33
2019-03-15T07:27:43.105Z,28.50
2019-03-15T07:30:15.735Z,22.27
2019-03-15T07:32:44.192Z,35.23
2019-03-15T07:35:12.906Z,38.33
2019-03-15T07:37:41.373Z,42.03
2019-03-15T07:40:11.321Z,33.20
2019-03-15T07:42:39.757Z,36.63
2019-03-15T07:45:09.930Z,33.63
2019-03-15T07:47:38.381Z,30.07
2019-03-15T07:50:09.865Z,21.47
2019-03-15T07:52:38.301Z,31.57
2019-03-15T07:55:09.077Z,27.60
2019-03-15T07:57:37.589Z,24.83
2019-03-15T08:00:16.574Z,32.87
2019-03-15T08:02:45.001Z,25.50
2019-03-15T08:05:13.489Z,23.20
2019-03-15T08:07:45.380Z,20.57
2019-03-15T08:10:12.846Z,37.47
2019-03-15T08:12:41.297Z,42.43
2019-03-15T08:15:11.478Z,28.80
2019-03-15T08:17:41.440Z,37.57
2019-03-15T08:20:11.911Z,33.80
2019-03-15T08:22:40.348Z,28.63
2019-03-15T08:25:11.043Z,23.90
2019-03-15T08:27:39.481Z,23.07
2019-03-15T08:30:14.271Z,29.40
2019-03-15T08:32:43.958Z,38.00
2019-03-15T08:35:13.568Z,27.10
2019-03-15T08:37:42.257Z,42.67
2019-03-15T08:40:12.439Z,22.43
2019-03-15T08:42:41.198Z,27.60
2019-03-15T08:45:14.745Z,41.57
2019-03-15T08:47:43.226Z,32.70
2019-03-15T08:50:15.315Z,20.47
2019-03-15T08:52:44.207Z,44.13
2019-03-15T08:55:14.120Z,28.40
2019-03-15T08:57:42.786Z,30.23
2019-03-15T09:00:18.893Z,25.13
2019-03-15T09:02:47.317Z,28.23
2019-03-15T09:05:16.482Z,25.80
2019-03-15T09:07:44.942Z,34.97
2019-03-15T09:10:23.367Z,25.77
2019-03-15T09:12:47.707Z,20.00
2019-03-15T09:15:16.403Z,22.57
2019-03-15T09:17:44.841Z,36.53
2019-03-15T09:20:14.825Z,27.70
2019-03-15T09:22:43.430Z,41.10
2019-03-15T09:25:20.384Z,23.63
2019-03-15T09:27:47.867Z,29.43
2019-03-15T09:30:24.781Z,30.83
2019-03-15T09:32:47.157Z,19.60
2019-03-15T09:35:15.576Z,37.10
2019-03-15T09:37:47.000Z,24.33
2019-03-15T09:40:17.941Z,46.47
2019-03-15T09:42:46.376Z,30.50
2019-03-15T09:45:17.580Z,46.50
2019-03-15T09:47:46.024Z,22.47
2019-03-15T09:50:26.429Z,15.57
2019-03-15T09:52:46.063Z,23.50
2019-03-15T09:55:15.529Z,16.60
2019-03-15T09:57:43.964Z,42.93
2019-03-15T10:00:16.701Z,30.60
2019-03-15T10:02:45.510Z,16.20
2019-03-15T10:05:14.215Z,13.03
2019-03-15T10:07:43.731Z,24.47
2019-03-15T10:10:18.814Z,26.87
2019-03-15T10:12:47.460Z,21.83
2019-03-15T10:15:17.141Z,22.60
2019-03-15T10:17:45.809Z,17.60
2019-03-15T10:20:15.170Z,17.47
2019-03-15T10:22:43.691Z,16.40
2019-03-15T10:25:16.780Z,15.93
2019-03-15T10:27:45.208Z,17.80
2019-03-15T10:30:16.317Z,18.63
2019-03-15T10:32:44.863Z,12.40
2019-03-15T10:35:13.274Z,16.33
2019-03-15T10:37:41.712Z,22.50
2019-03-15T10:40:21.601Z,14.10
2019-03-15T10:42:50.297Z,16.50
2019-03-15T10:45:18.727Z,27.37
2019-03-15T10:47:47.164Z,17.50
2019-03-15T10:50:17.907Z,19.27
2019-03-15T10:52:46.529Z,18.17
2019-03-15T10:55:16.777Z,19.40
2019-03-15T10:57:45.201Z,28.93
2019-03-15T11:00:16.553Z,29.33
2019-03-15T11:02:44.982Z,33.53
2019-03-15T11:05:13.529Z,41.03
2019-03-15T11:07:41.946Z,28.80
2019-03-15T11:10:34.401Z,26.90
2019-03-15T11:13:03.080Z,16.27
2019-03-15T11:15:31.513Z,16.43
2019-03-15T11:17:59.931Z,20.50
2019-03-15T11:20:28.369Z,17.53
2019-03-15T11:22:56.814Z,27.40
2019-03-15T11:25:25.341Z,18.47
2019-03-15T11:27:53.781Z,20.63
2019-03-15T11:30:22.592Z,21.17
2019-03-15T11:32:51.029Z,20.03
2019-03-15T11:35:21.256Z,23.73
2019-03-15T11:37:49.789Z,17.50
2019-03-15T11:40:19.611Z,23.33
2019-03-15T11:42:48.140Z,20.83
2019-03-15T11:45:16.576Z,30.33
2019-03-15T11:48:02.092Z,25.87
2019-03-15T11:50:17.209Z,24.17
2019-03-15T11:52:45.644Z,17.23
2019-03-15T11:55:14.064Z,30.40
2019-03-15T11:57:42.543Z,14.93
2019-03-15T12:00:15.608Z,24.73
2019-03-15T12:02:44.377Z,16.50
2019-03-15T12:05:13.350Z,16.53
2019-03-15T12:07:41.905Z,18.33
2019-03-15T12:10:14.120Z,8.00
2019-03-15T12:12:42.621Z,7.60
2019-03-15T12:15:13.741Z,14.00
2019-03-15T12:17:42.189Z,12.30
2019-03-15T12:20:11.942Z,7.30
2019-03-15T12:22:40.396Z,10.37
2019-03-15T12:25:10.803Z,6.13
2019-03-15T12:27:39.243Z,6.90
2019-03-15T12:30:12.830Z,9.53
2019-03-15T12:32:41.297Z,9.83
2019-03-15T12:35:14.191Z,7.60
2019-03-15T12:37:42.641Z,4.70
2019-03-15T12:40:12.818Z,10.60
2019-03-15T12:42:41.245Z,7.17
2019-03-15T12:45:11.149Z,3.30
2019-03-15T12:47:39.613Z,4.80
2019-03-15T12:50:10.245Z,6.83
2019-03-15T12:52:47.057Z,8.97
2019-03-15T12:55:10.761Z,11.00
2019-03-15T12:57:39.197Z,6.50
2019-03-15T13:00:10.692Z,9.90
2019-03-15T13:02:39.125Z,5.00
2019-03-15T13:05:07.549Z,11.63
2019-03-15T13:07:35.990Z,4.30
2019-03-15T13:10:21.656Z,6.00
2019-03-15T13:12:50.106Z,4.57
2019-03-15T13:15:18.585Z,6.03
2019-03-15T13:17:47.015Z,6.23
2019-03-15T13:20:16.576Z,5.87
2019-03-15T13:22:44.998Z,5.10
2019-03-15T13:25:14.277Z,4.13
2019-03-15T13:27:42.918Z,6.87
2019-03-15T13:30:17.574Z,3.27
2019-03-15T13:32:46.014Z,11.90
2019-03-15T13:35:14.961Z,8.40
2019-03-15T13:37:43.534Z,6.30
2019-03-15T13:40:14.116Z,6.10
2019-03-15T13:42:42.534Z,5.80
2019-03-15T13:45:13.012Z,5.80
2019-03-15T13:47:41.451Z,10.70
2019-03-15T13:50:12.194Z,1.93
2019-03-15T13:52:40.612Z,6.10
2019-03-15T13:55:09.594Z,10.83
2019-03-15T13:57:38.106Z,15.00
2019-03-15T14:00:16.287Z,6.27
2019-03-15T14:02:44.745Z,5.80
2019-03-15T14:05:13.208Z,8.10
2019-03-15T14:07:41.913Z,8.20
2019-03-15T14:10:17.396Z,21.50
2019-03-15T14:12:46.142Z,15.87
2019-03-15T14:15:16.250Z,8.33
2019-03-15T14:17:44.736Z,4.10
2019-03-15T14:20:13.776Z,7.53
2019-03-15T14:22:42.382Z,6.17
2019-03-15T14:25:15.978Z,13.57
2019-03-15T14:27:44.403Z,8.70
2019-03-15T14:30:13.921Z,5.80
2019-03-15T14:32:42.380Z,13.63
2019-03-15T14:35:11.256Z,9.20
2019-03-15T14:37:39.744Z,4.03
2019-03-15T14:40:12.242Z,14.37
2019-03-15T14:42:41.153Z,9.93
2019-03-15T14:45:14.153Z,7.00
2019-03-15T14:47:42.702Z,15.03
2019-03-15T14:50:16.047Z,10.67
2019-03-15T14:52:44.481Z,7.30
2019-03-15T14:55:17.549Z,13.50
2019-03-15T14:57:52.686Z,14.03
2019-03-15T15:00:20.253Z,10.70
2019-03-15T15:02:49.049Z,7.33
2019-03-15T15:05:17.511Z,12.57
2019-03-15T15:07:45.951Z,14.00
2019-03-15T15:10:15.976Z,19.97
2019-03-15T15:12:44.451Z,17.67
2019-03-15T15:15:21.552Z,9.43
2019-03-15T15:17:50.047Z,23.20
2019-03-15T15:20:18.879Z,8.60
2019-03-15T15:22:47.379Z,9.33
2019-03-15T15:25:17.812Z,9.30
2019-03-15T15:27:47.785Z,23.13
2019-03-15T15:30:17.069Z,6.57
2019-03-15T15:32:45.783Z,16.37
2019-03-15T15:35:15.246Z,12.93
2019-03-15T15:37:43.709Z,21.33
2019-03-15T15:40:19.188Z,20.23
2019-03-15T15:42:47.649Z,15.37
2019-03-15T15:45:17.617Z,17.13
2019-03-15T15:47:46.143Z,17.43
2019-03-15T15:50:16.416Z,17.27
2019-03-15T15:52:44.926Z,14.87
2019-03-15T15:55:16.853Z,5.73
2019-03-15T15:57:45.299Z,26.03
2019-03-15T16:00:18.539Z,11.27
2019-03-15T16:02:47.037Z,10.70
2019-03-15T16:05:15.900Z,20.27
2019-03-15T16:07:44.413Z,16.30
2019-03-15T16:10:17.618Z,7.20
2019-03-15T16:12:46.262Z,14.10
2019-03-15T16:15:19.280Z,6.13
2019-03-15T16:17:48.024Z,14.37
2019-03-15T16:20:16.436Z,19.13
2019-03-15T16:22:44.877Z,12.37
2019-03-15T16:25:13.871Z,24.43
2019-03-15T16:27:42.637Z,20.40
2019-03-15T16:30:16.299Z,17.43
2019-03-15T16:32:44.956Z,15.93
2019-03-15T16:35:14.256Z,8.87
2019-03-15T16:37:42.740Z,9.63
2019-03-15T16:40:13.417Z,11.37
2019-03-15T16:42:41.909Z,12.40
2019-03-15T16:45:21.843Z,13.37
2019-03-15T16:47:50.286Z,20.63
2019-03-15T16:50:18.757Z,16.20
2019-03-15T16:52:47.202Z,22.00
2019-03-15T16:55:15.665Z,14.27
2019-03-15T16:57:44.393Z,19.00
2019-03-15T17:00:17.248Z,17.03
2019-03-15T17:02:45.666Z,10.27
2019-03-15T17:05:14.745Z,18.27
2019-03-15T17:07:43.447Z,26.13
2019-03-15T17:10:13.992Z,17.80
2019-03-15T17:12:42.423Z,29.40
2019-03-15T17:15:16.505Z,13.03
2019-03-15T17:17:45.037Z,11.47
2019-03-15T17:20:13.573Z,26.83
2019-03-15T17:22:41.994Z,19.40
2019-03-15T17:25:13.582Z,17.10
2019-03-15T17:27:43.452Z,23.13
2019-03-15T17:30:14.214Z,24.57
2019-03-15T17:32:42.697Z,28.17
2019-03-15T17:35:12.937Z,32.50
2019-03-15T17:37:41.788Z,32.33
2019-03-15T17:40:14.548Z,15.70
2019-03-15T17:42:43.028Z,21.13
2019-03-15T17:45:11.872Z,15.97
2019-03-15T17:47:40.317Z,13.67
2019-03-15T17:50:11.709Z,28.37
2019-03-15T17:52:40.161Z,38.57
2019-03-15T17:55:09.052Z,24.83
2019-03-15T17:57:37.522Z,25.30
2019-03-15T18:00:16.220Z,30.27
2019-03-15T18:02:44.662Z,22.03
2019-03-15T18:05:13.657Z,25.40
2019-03-15T18:07:42.134Z,13.67
2019-03-15T18:10:10.827Z,18.17
2019-03-15T18:12:39.350Z,21.23
2019-03-15T18:15:09.807Z,24.80
2019-03-15T18:17:38.352Z,15.37
2019-03-15T18:20:08.788Z,10.53
2019-03-15T18:22:37.367Z,26.67
2019-03-15T18:25:08.076Z,23.63
2019-03-15T18:27:36.549Z,25.27
2019-03-15T18:30:13.355Z,31.97
2019-03-15T18:32:41.785Z,25.53
2019-03-15T18:35:11.375Z,26.13
2019-03-15T18:37:39.914Z,35.37
2019-03-15T18:40:11.538Z,31.33
2019-03-15T18:42:40.514Z,27.53
2019-03-15T18:45:15.792Z,22.17
2019-03-15T18:47:44.233Z,25.83
2019-03-15T18:50:21.547Z,34.63
2019-03-15T18:52:50.044Z,33.73
2019-03-15T18:55:18.480Z,19.40
2019-03-15T18:57:46.926Z,19.60
2019-03-15T19:00:19.995Z,10.93
2019-03-15T19:02:52.475Z,21.17
2019-03-15T19:05:39.386Z,19.70
2019-03-15T19:08:07.883Z,10.77
2019-03-15T19:10:38.802Z,32.20
2019-03-15T19:13:07.384Z,17.80
2019-03-15T19:15:35.916Z,20.43
2019-03-15T19:18:04.367Z,16.50
2019-03-15T19:20:35.754Z,12.43
2019-03-15T19:23:04.584Z,23.40
2019-03-15T19:25:33.017Z,33.67
2019-03-15T19:28:01.534Z,30.13
2019-03-15T19:30:30.153Z,20.73
2019-03-15T19:32:58.721Z,17.23
2019-03-15T19:35:27.181Z,27.10
2019-03-15T19:37:55.626Z,39.30
2019-03-15T19:40:24.062Z,25.53
2019-03-15T19:42:52.519Z,20.70
2019-03-15T19:45:21.275Z,15.90
2019-03-15T19:47:49.726Z,9.30
2019-03-15T19:50:19.817Z,26.47
2019-03-15T19:52:48.243Z,29.73
2019-03-15T19:55:17.250Z,31.03
2019-03-15T19:57:46.147Z,35.93
2019-03-15T20:00:19.823Z,23.40
2019-03-15T20:02:48.310Z,27.17
2019-03-15T20:05:16.927Z,29.27
2019-03-15T20:07:45.566Z,22.33
2019-03-15T20:10:17.123Z,14.00
2019-03-15T20:12:45.928Z,30.40
2019-03-15T20:15:17.121Z,40.13
2019-03-15T20:17:45.660Z,19.40
2019-03-15T20:20:15.554Z,30.33
2019-03-15T20:22:44.078Z,18.17
2019-03-15T20:25:15.745Z,28.33
2019-03-15T20:27:44.238Z,29.30
2019-03-15T20:30:21.572Z,20.40
2019-03-15T20:32:47.228Z,27.77
2019-03-15T20:35:15.696Z,13.00
2019-03-15T20:37:47.057Z,25.37
2019-03-15T20:40:15.725Z,34.40
2019-03-15T20:42:44.197Z,25.20
2019-03-15T20:45:20.758Z,35.03
2019-03-15T20:47:49.261Z,32.00
2019-03-15T20:50:17.756Z,19.40
2019-03-15T20:52:46.317Z,23.73
2019-03-15T20:55:14.946Z,33.97
2019-03-15T20:57:43.429Z,22.77
2019-03-15T21:00:21.754Z,37.17
2019-03-15T21:02:50.403Z,26.40
2019-03-15T21:05:19.459Z,17.17
2019-03-15T21:07:47.949Z,11.57
2019-03-15T21:10:17.755Z,32.77
2019-03-15T21:12:49.312Z,32.23
2019-03-15T21:15:17.779Z,31.33
2019-03-15T21:17:46.218Z,20.47
2019-03-15T21:20:16.871Z,25.47
2019-03-15T21:22:45.379Z,28.97
2019-03-15T21:25:13.796Z,34.80
2019-03-15T21:27:53.025Z,18.07
2019-03-15T21:30:26.260Z,22.83
2019-03-15T21:32:54.761Z,13.87
2019-03-15T21:35:23.234Z,15.83
2019-03-15T21:37:51.798Z,53.57
2019-03-15T21:40:21.658Z,19.47
2019-03-15T21:42:50.214Z,28.93
2019-03-15T21:45:18.632Z,28.73
2019-03-15T21:47:47.074Z,15.23
2019-03-15T21:50:18.758Z,27.77
2019-03-15T21:52:47.214Z,20.67
2019-03-15T21:55:15.654Z,13.57
2019-03-15T21:57:44.119Z,29.77
2019-03-15T22:00:20.201Z,16.37
2019-03-15T22:02:48.682Z,35.40
2019-03-15T22:05:17.245Z,33.30
2019-03-15T22:07:45.686Z,37.30
2019-03-15T22:10:14.961Z,32.20
2019-03-15T22:12:43.672Z,27.77
2019-03-15T22:15:13.234Z,23.23
2019-03-15T22:17:41.723Z,43.27
2019-03-15T22:20:19.362Z,29.50
2019-03-15T22:22:47.904Z,34.10
2019-03-15T22:25:16.336Z,20.87
2019-03-15T22:27:44.782Z,19.20
2019-03-15T22:30:14.364Z,19.20
2019-03-15T22:32:43.064Z,19.00
2019-03-15T22:35:12.037Z,33.90
2019-03-15T22:37:40.471Z,19.30
2019-03-15T22:40:10.570Z,24.93
2019-03-15T22:42:39.009Z,27.20
2019-03-15T22:45:09.882Z,22.97
2019-03-15T22:47:38.328Z,30.30
2019-03-15T22:50:09.297Z,26.80
2019-03-15T22:52:37.754Z,17.00
2019-03-15T22:55:08.515Z,14.20
2019-03-15T22:57:36.962Z,36.73
2019-03-15T23:00:16.365Z,24.67
2019-03-15T23:02:44.946Z,32.57
2019-03-15T23:05:14.350Z,25.77
2019-03-15T23:07:42.911Z,38.33
2019-03-15T23:10:11.989Z,19.93
2019-03-15T23:12:40.459Z,32.53
2019-03-15T23:15:13.120Z,24.90
2019-03-15T23:17:41.569Z,29.20
2019-03-15T23:20:12.322Z,23.53
2019-03-15T23:22:40.782Z,28.77
2019-03-15T23:25:09.643Z,41.20
2019-03-15T23:27:38.158Z,23.10
2019-03-15T23:30:17.266Z,24.70
2019-03-15T23:32:45.717Z,33.10
2019-03-15T23:35:14.134Z,29.37
2019-03-15T23:37:42.580Z,37.77
2019-03-15T23:40:12.840Z,32.17
2019-03-15T23:42:41.555Z,29.73
2019-03-15T23:45:11.150Z,27.57
2019-03-15T23:47:39.588Z,41.33
2019-03-15T23:50:13.162Z,27.40
2019-03-15T23:52:41.598Z,37.37
2019-03-15T23:55:10.192Z,29.13
2019-03-15T23:57:38.666Z,33.50
